Time;durP1;ratioP1;P1;durP2;ratioP2;P2;SDS_P1;SDS_P2;PMS_P1;PMS_P2;Temp;Humidity;BMP_temperature;BMP_pressure;BME280_temperature;BME280_humidity;BME280_pressure;Samples;Min_cycle;Max_cycle;Signal;HPM_P1;HPM_P2
2023/03/10 00:01:21;;;;;;;37.17;18.03;;;2.00;99.90;;;;;;5055424;28;20242;-78
2023/03/10 00:03:47;;;;;;;41.03;19.30;;;2.00;99.90;;;;;;5073131;28;20207;-79
2023/03/10 00:06:15;;;;;;;40.97;19.40;;;2.20;99.90;;;;;;5054266;28;20217;-76
2023/03/10 00:08:41;;;;;;;38.40;18.67;;;2.20;99.90;;;;;;5073702;28;20202;-79
2023/03/10 00:11:07;;;;;;;34.63;17.53;;;2.10;99.90;;;;;;5068444;28;20198;-77
2023/03/10 00:13:33;;;;;;;36.73;18.47;;;2.00;99.90;;;;;;5087649;28;20231;-78
2023/03/10 00:15:59;;;;;;;38.03;19.70;;;2.00;99.90;;;;;;5057165;28;20302;-78
2023/03/10 00:18:24;;;;;;;34.77;18.17;;;2.00;99.90;;;;;;5076301;28;20248;-78
2023/03/10 00:20:54;;;;;;;33.77;18.10;;;2.00;99.90;;;;;;5071234;28;20210;-77
2023/03/10 00:23:20;;;;;;;31.43;17.47;;;2.10;99.90;;;;;;5065571;28;20215;-77
2023/03/10 00:25:57;;;;;;;36.97;18.47;;;2.10;99.90;;;;;;5086167;28;20676;-79
2023/03/10 00:28:23;;;;;;;31.60;16.77;;;2.30;99.90;;;;;;5079113;28;20692;-77
2023/03/10 00:31:17;;;;;;;31.87;16.80;;;2.30;99.90;;;;;;5050294;28;20218;-75
2023/03/10 00:33:43;;;;;;;31.87;16.27;;;2.10;99.90;;;;;;5064599;28;20303;-76
2023/03/10 00:36:15;;;;;;;34.03;16.40;;;2.10;99.90;;;;;;5044139;28;20304;-75
2023/03/10 00:38:42;;;;;;;30.40;16.03;;;2.10;99.90;;;;;;5067535;28;20210;-75
2023/03/10 00:41:11;;;;;;;29.77;15.73;;;2.10;99.90;;;;;;5067853;28;20186;-74
2023/03/10 00:43:37;;;;;;;30.10;15.43;;;2.10;99.90;;;;;;5048567;28;20332;-75
2023/03/10 00:46:03;;;;;;;30.33;15.60;;;2.00;99.90;;;;;;5089607;22;20740;-79
2023/03/10 00:48:29;;;;;;;30.53;15.73;;;2.00;99.90;;;;;;5056526;28;20233;-79
2023/03/10 00:50:55;;;;;;;27.87;14.97;;;2.00;99.90;;;;;;5055994;28;20199;-79
2023/03/10 00:53:21;;;;;;;26.43;14.67;;;2.00;99.90;;;;;;5053240;28;20208;-80
2023/03/10 00:56:07;;;;;;;29.53;14.70;;;2.00;99.90;;;;;;5075088;28;20607;-80
2023/03/10 00:58:33;;;;;;;27.13;14.73;;;2.00;99.90;;;;;;5063114;28;20198;-81
2023/03/10 01:01:00;;;;;;;27.90;14.77;;;2.00;99.90;;;;;;5066254;28;20234;-79
2023/03/10 01:03:27;;;;;;;27.00;14.37;;;2.00;99.90;;;;;;5050876;28;20210;-78
2023/03/10 01:05:55;;;;;;;27.87;14.63;;;2.10;99.90;;;;;;5048049;28;20233;-77
2023/03/10 01:08:21;;;;;;;27.60;14.30;;;2.00;99.90;;;;;;5044917;28;20211;-77
2023/03/10 01:10:48;;;;;;;29.87;14.80;;;2.00;99.90;;;;;;5067323;28;20201;-78
2023/03/10 01:13:16;;;;;;;29.13;15.63;;;2.00;99.90;;;;;;5048087;28;20213;-78
2023/03/10 01:15:47;;;;;;;29.90;14.80;;;2.00;99.90;;;;;;5051426;28;20336;-77
2023/03/10 01:18:13;;;;;;;29.47;15.03;;;2.00;99.90;;;;;;5067194;28;20210;-78
2023/03/10 01:20:41;;;;;;;28.43;15.37;;;2.00;99.90;;;;;;5065973;28;20294;-78
2023/03/10 01:23:14;;;;;;;30.23;15.03;;;2.00;99.90;;;;;;5066517;28;20167;-75
2023/03/10 01:25:39;;;;;;;29.30;14.93;;;1.90;99.90;;;;;;5053794;28;20198;-77
2023/03/10 01:28:05;;;;;;;30.93;15.70;;;2.00;99.90;;;;;;5067417;28;20233;-77
2023/03/10 01:30:31;;;;;;;28.57;14.83;;;2.00;99.90;;;;;;5063245;28;20213;-78
2023/03/10 01:32:56;;;;;;;31.93;15.53;;;2.00;99.90;;;;;;5067660;28;20762;-78
2023/03/10 01:35:22;;;;;;;29.23;15.23;;;2.00;99.90;;;;;;5064685;28;20215;-78
2023/03/10 01:37:47;;;;;;;29.90;15.67;;;2.00;99.90;;;;;;5050263;28;20183;-77
2023/03/10 01:40:17;;;;;;;29.17;14.90;;;2.10;99.90;;;;;;5070719;28;20210;-78
2023/03/10 01:42:43;;;;;;;30.27;15.63;;;2.00;99.90;;;;;;5064161;28;20241;-75
2023/03/10 01:45:35;;;;;;;29.53;15.17;;;2.00;99.90;;;;;;5046490;28;20211;-77
2023/03/10 01:48:01;;;;;;;30.27;14.37;;;2.10;99.90;;;;;;5039448;28;20260;-75
2023/03/10 01:50:26;;;;;;;27.77;13.70;;;2.10;99.90;;;;;;5053170;28;20289;-77
2023/03/10 01:52:57;;;;;;;29.10;14.37;;;2.10;99.90;;;;;;5055722;28;20178;-77
2023/03/10 01:55:28;;;;;;;25.60;13.53;;;2.10;99.90;;;;;;5064344;28;20661;-77
2023/03/10 01:57:56;;;;;;;26.40;13.80;;;2.20;99.90;;;;;;5053171;28;20209;-78
2023/03/10 02:00:24;;;;;;;28.37;14.10;;;2.20;99.90;;;;;;5050470;28;20242;-77
2023/03/10 02:02:57;;;;;;;26.93;13.30;;;2.20;99.90;;;;;;5070611;28;20221;-77
2023/03/10 02:05:24;;;;;;;25.13;13.20;;;2.10;99.90;;;;;;5064358;28;20214;-76
2023/03/10 02:07:51;;;;;;;25.47;13.43;;;2.10;99.90;;;;;;5061567;28;20227;-76
2023/03/10 02:10:16;;;;;;;27.70;14.00;;;2.10;99.90;;;;;;5050262;28;20267;-76
2023/03/10 02:12:42;;;;;;;28.47;14.47;;;2.10;99.90;;;;;;5062446;28;20791;-77
2023/03/10 02:15:10;;;;;;;26.20;13.37;;;2.10;99.90;;;;;;5070799;28;20210;-75
2023/03/10 02:17:36;;;;;;;26.60;13.33;;;2.10;99.90;;;;;;5068172;28;20607;-78
2023/03/10 02:20:19;;;;;;;27.03;14.10;;;2.10;99.90;;;;;;5052329;28;20181;-78
2023/03/10 02:22:44;;;;;;;25.70;12.87;;;2.20;99.90;;;;;;5053474;28;20663;-77
2023/03/10 02:25:46;;;;;;;27.07;12.97;;;2.20;99.90;;;;;;5041750;28;20210;-77
2023/03/10 02:28:12;;;;;;;23.43;12.33;;;2.20;99.90;;;;;;5041190;28;20297;-76
2023/03/10 02:30:42;;;;;;;25.27;12.83;;;2.10;99.90;;;;;;5064424;28;20237;-77
2023/03/10 02:33:12;;;;;;;26.67;13.23;;;2.10;99.90;;;;;;5051469;28;20637;-77
2023/03/10 02:35:38;;;;;;;25.00;12.37;;;2.10;99.90;;;;;;5044527;28;20218;-77
2023/03/10 02:38:04;;;;;;;27.43;13.73;;;2.10;99.90;;;;;;5069515;28;20176;-78
2023/03/10 02:40:36;;;;;;;25.47;13.80;;;2.10;99.90;;;;;;5068090;28;20547;-78
2023/03/10 02:43:17;;;;;;;23.57;12.23;;;2.10;99.90;;;;;;5065543;28;20256;-78
2023/03/10 02:45:45;;;;;;;29.20;14.40;;;2.20;99.90;;;;;;5044666;28;20221;-77
2023/03/10 02:48:26;;;;;;;22.87;12.90;;;2.10;99.90;;;;;;5052524;28;20659;-78
2023/03/10 02:50:52;;;;;;;24.17;12.37;;;2.10;99.90;;;;;;5059673;28;20692;-77
2023/03/10 02:53:21;;;;;;;25.63;13.37;;;2.20;99.90;;;;;;5067810;28;20236;-77
2023/03/10 02:55:47;;;;;;;25.17;12.97;;;2.20;99.90;;;;;;5067109;28;20267;-77
2023/03/10 02:58:14;;;;;;;26.03;12.73;;;2.10;99.90;;;;;;5070763;28;20221;-76
2023/03/10 03:00:43;;;;;;;23.60;11.80;;;2.20;99.90;;;;;;5061694;28;20206;-76
2023/03/10 03:03:10;;;;;;;22.43;12.17;;;2.20;99.90;;;;;;5060775;28;20791;-75
2023/03/10 03:05:36;;;;;;;20.80;12.13;;;2.20;99.90;;;;;;5052370;28;20218;-76
2023/03/10 03:08:03;;;;;;;24.00;12.30;;;2.30;99.90;;;;;;5069982;28;20202;-77
2023/03/10 03:10:30;;;;;;;22.23;11.70;;;2.30;99.90;;;;;;5057437;28;20552;-76
2023/03/10 03:12:55;;;;;;;23.83;12.47;;;2.40;99.90;;;;;;5046110;28;20787;-77
2023/03/10 03:15:22;;;;;;;21.47;12.20;;;2.40;99.90;;;;;;5069917;28;20211;-77
2023/03/10 03:17:47;;;;;;;25.40;12.87;;;2.30;99.90;;;;;;5054716;28;20244;-77
2023/03/10 03:20:13;;;;;;;27.83;12.47;;;2.30;99.90;;;;;;5067955;28;21001;-76
2023/03/10 03:22:44;;;;;;;24.40;12.23;;;2.30;99.90;;;;;;5051579;28;20179;-78
2023/03/10 03:25:12;;;;;;;18.97;10.77;;;2.30;99.90;;;;;;5065712;28;20639;-78
2023/03/10 03:27:38;;;;;;;19.60;10.07;;;2.30;99.90;;;;;;5046244;28;20839;-78
2023/03/10 03:30:07;;;;;;;20.03;11.03;;;2.30;99.90;;;;;;5073362;28;20205;-79
2023/03/10 03:32:34;;;;;;;20.23;10.33;;;2.30;99.90;;;;;;5067790;28;20222;-77
2023/03/10 03:35:00;;;;;;;21.87;10.77;;;2.30;99.90;;;;;;5068604;28;20188;-78
2023/03/10 03:37:26;;;;;;;20.17;10.93;;;2.40;99.90;;;;;;5063315;28;20203;-78
2023/03/10 03:39:52;;;;;;;20.00;10.27;;;2.40;99.90;;;;;;5069103;28;20247;-79
2023/03/10 03:42:18;;;;;;;20.43;10.63;;;2.40;99.90;;;;;;5067120;28;20212;-78
2023/03/10 03:44:43;;;;;;;19.27;10.57;;;2.40;99.90;;;;;;5063970;28;20232;-78
2023/03/10 03:47:09;;;;;;;18.53;10.33;;;2.30;99.90;;;;;;5053868;28;20234;-76
2023/03/10 03:49:36;;;;;;;18.93;10.63;;;2.30;99.90;;;;;;5064010;28;20589;-77
2023/03/10 03:52:03;;;;;;;20.33;10.93;;;2.30;99.90;;;;;;5044813;28;20207;-78
2023/03/10 03:54:28;;;;;;;17.23;10.07;;;2.30;99.90;;;;;;5066403;28;20206;-78
2023/03/10 03:56:54;;;;;;;19.43;10.90;;;2.30;99.90;;;;;;5065221;28;20210;-77
2023/03/10 03:59:20;;;;;;;17.40;8.83;;;2.30;99.90;;;;;;5054878;28;20748;-78
2023/03/10 04:01:45;;;;;;;19.07;10.50;;;2.30;99.90;;;;;;5068145;28;20178;-78
2023/03/10 04:04:11;;;;;;;18.03;8.93;;;2.30;99.90;;;;;;5067318;28;20199;-79
2023/03/10 04:06:36;;;;;;;18.47;10.23;;;2.30;99.90;;;;;;5064147;28;20217;-78
2023/03/10 04:09:03;;;;;;;17.20;9.40;;;2.30;99.90;;;;;;5067431;28;20204;-78
2023/03/10 04:11:29;;;;;;;19.90;9.90;;;2.30;99.90;;;;;;5067356;28;20727;-78
2023/03/10 04:13:54;;;;;;;16.80;9.07;;;2.30;99.90;;;;;;5062567;28;20202;-77
2023/03/10 04:16:20;;;;;;;18.20;10.43;;;2.40;99.90;;;;;;5053473;28;20588;-75
2023/03/10 04:18:45;;;;;;;14.67;8.83;;;2.30;99.90;;;;;;5072928;28;20222;-79
2023/03/10 04:21:11;;;;;;;14.87;9.40;;;2.40;99.90;;;;;;5073267;28;20206;-76
2023/03/10 04:23:40;;;;;;;16.07;8.67;;;2.40;99.90;;;;;;5042288;28;20214;-77
2023/03/10 04:26:08;;;;;;;13.70;8.47;;;2.40;99.90;;;;;;5062240;28;20244;-77
2023/03/10 04:28:34;;;;;;;15.93;9.67;;;2.40;99.90;;;;;;5065234;28;20168;-77
2023/03/10 04:31:00;;;;;;;16.57;9.87;;;2.40;99.90;;;;;;5065692;28;20695;-77
2023/03/10 04:33:25;;;;;;;15.30;9.50;;;2.50;99.90;;;;;;5061669;28;20214;-77
2023/03/10 04:35:52;;;;;;;16.97;9.27;;;2.40;99.90;;;;;;5064285;28;20207;-78
2023/03/10 04:38:18;;;;;;;14.43;8.93;;;2.40;99.90;;;;;;5069216;28;20203;-78
2023/03/10 04:40:43;;;;;;;16.53;7.97;;;2.50;99.90;;;;;;5053857;28;20178;-77
2023/03/10 04:43:09;;;;;;;15.50;8.87;;;2.50;99.90;;;;;;5055186;28;20219;-76
2023/03/10 04:45:35;;;;;;;15.00;8.57;;;2.50;99.90;;;;;;5068308;28;20585;-77
2023/03/10 04:48:01;;;;;;;14.30;9.17;;;2.50;99.90;;;;;;5065101;28;20207;-77
2023/03/10 04:50:27;;;;;;;15.07;8.77;;;2.50;99.90;;;;;;5065135;28;20704;-77
2023/03/10 04:52:52;;;;;;;13.77;8.37;;;2.50;99.90;;;;;;5050697;28;20219;-78
2023/03/10 04:55:18;;;;;;;12.63;8.23;;;2.50;99.90;;;;;;5066239;28;20645;-77
2023/03/10 04:57:43;;;;;;;12.03;7.57;;;2.60;99.90;;;;;;5059836;28;20301;-78
2023/03/10 05:00:11;;;;;;;15.77;10.48;;;2.60;99.90;;;;;;5053032;28;20406;-76
2023/03/10 05:02:38;;;;;;;14.57;8.93;;;2.60;99.90;;;;;;5061496;28;20219;-77
2023/03/10 05:05:04;;;;;;;11.97;7.83;;;2.60;99.90;;;;;;5050532;28;20183;-78
2023/03/10 05:07:31;;;;;;;12.83;7.93;;;2.50;99.90;;;;;;5071362;28;20211;-77
2023/03/10 05:09:57;;;;;;;13.93;7.70;;;2.60;99.90;;;;;;5068217;28;20218;-78
2023/03/10 05:12:22;;;;;;;12.33;7.90;;;2.50;99.90;;;;;;5053962;28;20259;-78
2023/03/10 05:14:48;;;;;;;14.67;8.50;;;2.50;99.90;;;;;;5065099;28;20211;-77
2023/03/10 05:17:14;;;;;;;15.17;9.37;;;2.50;99.90;;;;;;5062899;28;20619;-78
2023/03/10 05:19:39;;;;;;;13.93;9.00;;;2.50;99.90;;;;;;5067962;28;20187;-78
2023/03/10 05:22:06;;;;;;;14.63;8.30;;;2.60;99.90;;;;;;5067955;28;20267;-78
2023/03/10 05:24:32;;;;;;;12.77;8.10;;;2.50;99.90;;;;;;5047182;28;20240;-78
2023/03/10 05:27:01;;;;;;;16.43;9.40;;;2.50;99.90;;;;;;5069039;28;20590;-79
2023/03/10 05:29:26;;;;;;;15.10;9.37;;;2.50;99.90;;;;;;5046890;28;20218;-78
2023/03/10 05:31:52;;;;;;;12.17;7.97;;;2.60;99.90;;;;;;5064931;28;20175;-79
2023/03/10 05:34:18;;;;;;;13.43;8.90;;;2.60;99.90;;;;;;5054177;28;20318;-79
2023/03/10 05:36:44;;;;;;;12.70;8.87;;;2.60;99.90;;;;;;5053583;28;20224;-78
2023/03/10 05:39:10;;;;;;;15.63;9.73;;;2.60;99.90;;;;;;5052204;28;20214;-78
2023/03/10 05:41:37;;;;;;;13.93;8.60;;;2.60;99.90;;;;;;5064470;28;20270;-78
2023/03/10 05:44:03;;;;;;;13.67;8.40;;;2.60;99.90;;;;;;5072063;28;20193;-78
2023/03/10 05:46:29;;;;;;;12.37;8.20;;;2.60;99.90;;;;;;5050901;28;20729;-78
2023/03/10 05:48:55;;;;;;;13.73;8.30;;;2.60;99.90;;;;;;5064820;28;20203;-78
2023/03/10 05:51:21;;;;;;;12.70;7.70;;;2.60;99.90;;;;;;5052188;28;20297;-79
2023/03/10 05:53:47;;;;;;;13.30;8.70;;;2.70;99.90;;;;;;5064027;28;20242;-78
2023/03/10 05:56:16;;;;;;;15.37;9.30;;;2.70;99.90;;;;;;5064143;28;20214;-78
2023/03/10 05:58:43;;;;;;;12.60;8.07;;;2.70;99.90;;;;;;5067052;28;20645;-79
2023/03/10 06:01:09;;;;;;;13.20;9.00;;;2.70;99.90;;;;;;5050376;28;20345;-76
2023/03/10 06:03:36;;;;;;;15.17;9.27;;;2.70;99.90;;;;;;5065310;28;20646;-78
2023/03/10 06:06:02;;;;;;;13.23;9.07;;;2.70;99.90;;;;;;5081073;28;20225;-78
2023/03/10 06:08:28;;;;;;;15.03;9.37;;;2.70;99.90;;;;;;5067315;28;20233;-79
2023/03/10 06:10:55;;;;;;;15.77;9.30;;;2.70;99.90;;;;;;5048616;28;20262;-78
2023/03/10 06:13:20;;;;;;;15.33;9.07;;;2.70;99.90;;;;;;5068946;28;20175;-79
2023/03/10 06:15:55;;;;;;;13.87;9.13;;;2.70;99.90;;;;;;5065895;28;20743;-78
2023/03/10 06:18:21;;;;;;;14.60;8.97;;;2.80;99.90;;;;;;5065095;28;20207;-79
2023/03/10 06:20:48;;;;;;;14.33;9.60;;;2.80;99.90;;;;;;5056319;28;20584;-78
2023/03/10 06:23:16;;;;;;;15.73;9.03;;;2.80;99.90;;;;;;5055274;28;20986;-78
2023/03/10 06:25:41;;;;;;;14.37;9.00;;;2.80;99.90;;;;;;5055020;28;20195;-78
2023/03/10 06:28:08;;;;;;;16.70;10.23;;;2.90;99.90;;;;;;5050669;28;20222;-78
2023/03/10 06:30:33;;;;;;;14.83;9.27;;;2.90;99.90;;;;;;5044914;28;20319;-75
2023/03/10 06:33:00;;;;;;;15.10;8.73;;;2.90;99.90;;;;;;5063434;28;20204;-78
2023/03/10 06:35:26;;;;;;;15.57;9.80;;;2.90;99.90;;;;;;5064976;28;20305;-77
2023/03/10 06:37:52;;;;;;;17.00;9.97;;;2.90;99.90;;;;;;5065595;28;20242;-78
2023/03/10 06:40:18;;;;;;;13.30;9.03;;;3.00;99.90;;;;;;5060897;28;20662;-78
2023/03/10 06:42:43;;;;;;;14.97;9.83;;;3.00;99.90;;;;;;5042232;28;20243;-79
2023/03/10 06:45:14;;;;;;;14.03;8.83;;;3.00;99.90;;;;;;5070933;28;20209;-77
2023/03/10 06:47:40;;;;;;;13.63;9.13;;;3.00;99.90;;;;;;5062993;28;20226;-78
2023/03/10 06:50:06;;;;;;;15.73;9.17;;;3.00;99.90;;;;;;5066884;28;20236;-77
2023/03/10 06:52:35;;;;;;;14.73;9.20;;;3.00;99.90;;;;;;5069814;28;20562;-77
2023/03/10 06:55:01;;;;;;;14.27;9.37;;;3.10;99.90;;;;;;5064488;28;20694;-78
2023/03/10 06:57:27;;;;;;;13.63;8.60;;;3.10;99.90;;;;;;5045035;28;20349;-77
2023/03/10 06:59:53;;;;;;;17.13;9.70;;;3.00;99.90;;;;;;5052301;28;20256;-77
2023/03/10 07:02:20;;;;;;;13.97;8.67;;;3.00;99.90;;;;;;5068640;28;20613;-78
2023/03/10 07:04:46;;;;;;;14.13;8.93;;;3.00;99.90;;;;;;5054489;28;20169;-77
2023/03/10 07:07:12;;;;;;;16.07;9.37;;;3.10;99.90;;;;;;5071279;28;20205;-75
2023/03/10 07:09:38;;;;;;;15.30;9.80;;;3.10;99.90;;;;;;5067361;28;20711;-75
2023/03/10 07:12:04;;;;;;;14.03;9.67;;;3.20;99.90;;;;;;5067264;28;20223;-76
2023/03/10 07:14:30;;;;;;;17.73;10.20;;;3.20;99.90;;;;;;5067616;28;20741;-76
2023/03/10 07:16:56;;;;;;;14.30;9.27;;;3.30;99.90;;;;;;5068112;28;20209;-77
2023/03/10 07:19:22;;;;;;;15.10;9.30;;;3.30;99.90;;;;;;5068742;28;20179;-77
2023/03/10 07:21:48;;;;;;;15.67;9.97;;;3.30;99.90;;;;;;5052309;28;20629;-78
2023/03/10 07:24:14;;;;;;;14.70;9.13;;;3.30;99.90;;;;;;5060812;28;20214;-75
2023/03/10 07:26:40;;;;;;;13.93;9.77;;;3.40;99.90;;;;;;5049726;28;20219;-78
2023/03/10 07:29:05;;;;;;;14.23;10.10;;;3.40;99.90;;;;;;5062839;28;20173;-77
2023/03/10 07:31:33;;;;;;;14.87;8.90;;;3.40;99.90;;;;;;5045127;28;20251;-77
2023/03/10 07:34:00;;;;;;;17.30;9.60;;;3.50;99.90;;;;;;5065708;28;20215;-77
2023/03/10 07:36:26;;;;;;;15.37;10.03;;;3.50;99.90;;;;;;5058479;28;20310;-77
2023/03/10 07:38:52;;;;;;;14.07;9.13;;;3.50;99.90;;;;;;5062520;28;20952;-75
2023/03/10 07:41:19;;;;;;;16.60;9.83;;;3.60;99.90;;;;;;5067386;28;20607;-77
2023/03/10 07:43:45;;;;;;;16.80;10.07;;;3.60;99.90;;;;;;5035335;28;20694;-77
2023/03/10 07:46:13;;;;;;;14.43;9.73;;;3.70;99.90;;;;;;5073848;28;20212;-77
2023/03/10 07:48:39;;;;;;;15.07;9.80;;;3.60;99.90;;;;;;5048632;28;20203;-76
2023/03/10 07:51:05;;;;;;;16.07;9.57;;;3.70;99.90;;;;;;5060546;28;20229;-77
2023/03/10 07:53:32;;;;;;;14.53;10.03;;;3.80;99.90;;;;;;5058926;28;20230;-77
2023/03/10 07:55:57;;;;;;;16.23;10.70;;;3.90;99.90;;;;;;5048366;28;20196;-77
2023/03/10 07:58:23;;;;;;;15.50;10.40;;;4.00;99.90;;;;;;5068964;28;20179;-76
2023/03/10 08:00:56;;;;;;;15.70;10.50;;;4.00;99.90;;;;;;5054342;28;20225;-78
2023/03/10 08:03:24;;;;;;;15.53;9.60;;;4.10;99.90;;;;;;5072888;28;20212;-78
2023/03/10 08:05:50;;;;;;;16.50;10.17;;;4.10;99.90;;;;;;5063991;28;20226;-78
2023/03/10 08:08:16;;;;;;;14.13;9.90;;;4.20;99.90;;;;;;5073911;28;20233;-77
2023/03/10 08:10:42;;;;;;;16.30;11.50;;;4.30;99.90;;;;;;5074618;28;20210;-76
2023/03/10 08:13:07;;;;;;;17.17;10.70;;;4.30;99.90;;;;;;5050587;28;20210;-75
2023/03/10 08:15:33;;;;;;;13.80;9.43;;;4.30;99.90;;;;;;5058185;28;20289;-77
2023/03/10 08:18:03;;;;;;;19.97;10.93;;;4.50;99.90;;;;;;5051234;28;20219;-78
2023/03/10 08:20:29;;;;;;;16.20;9.80;;;4.70;99.90;;;;;;5041859;28;20226;-77
2023/03/10 08:22:54;;;;;;;13.93;10.10;;;4.70;99.90;;;;;;5067705;28;20199;-78
2023/03/10 08:25:20;;;;;;;16.13;10.87;;;4.70;99.90;;;;;;5085554;28;20203;-77
2023/03/10 08:27:45;;;;;;;15.90;10.83;;;4.80;99.90;;;;;;5050782;28;20333;-77
2023/03/10 08:30:11;;;;;;;15.53;9.93;;;4.70;99.90;;;;;;5070209;28;20247;-76
2023/03/10 08:32:37;;;;;;;17.40;11.03;;;4.70;99.90;;;;;;5058266;28;20287;-77
2023/03/10 08:35:04;;;;;;;16.93;10.87;;;4.70;99.90;;;;;;5069589;28;20224;-76
2023/03/10 08:37:30;;;;;;;14.73;10.10;;;4.70;99.90;;;;;;5064341;28;20210;-76
2023/03/10 08:39:57;;;;;;;16.53;11.13;;;4.80;99.90;;;;;;5055465;28;20228;-77
2023/03/10 08:42:23;;;;;;;16.90;11.57;;;4.80;99.90;;;;;;5066464;28;20310;-76
2023/03/10 08:44:49;;;;;;;18.73;11.67;;;4.90;99.90;;;;;;5062246;28;20234;-77
2023/03/10 08:47:14;;;;;;;16.63;11.03;;;4.90;99.90;;;;;;5063821;28;20281;-76
2023/03/10 08:49:40;;;;;;;20.67;11.53;;;5.10;99.90;;;;;;5045958;28;20210;-78
2023/03/10 08:52:06;;;;;;;18.03;11.50;;;5.10;99.90;;;;;;5047595;28;20203;-77
2023/03/10 08:54:32;;;;;;;17.43;11.83;;;5.30;99.90;;;;;;5065364;28;20218;-76
2023/03/10 08:56:58;;;;;;;16.37;11.17;;;5.50;99.90;;;;;;5067162;28;20207;-76
2023/03/10 08:59:24;;;;;;;16.57;10.47;;;5.60;99.90;;;;;;5072849;28;20293;-75
2023/03/10 09:01:49;;;;;;;18.47;11.20;;;5.70;99.90;;;;;;5049619;28;20195;-79
2023/03/10 09:04:15;;;;;;;15.93;11.30;;;5.80;99.90;;;;;;5071854;28;20182;-78
2023/03/10 09:06:41;;;;;;;28.63;11.10;;;5.80;99.90;;;;;;5071738;28;20278;-78
2023/03/10 09:09:09;;;;;;;17.47;11.27;;;5.80;99.90;;;;;;5060229;28;20248;-76
2023/03/10 09:11:36;;;;;;;18.00;11.00;;;5.90;99.90;;;;;;5047121;28;20604;-77
2023/03/10 09:14:02;;;;;;;14.37;10.97;;;5.90;99.90;;;;;;5067116;28;20206;-76
2023/03/10 09:16:29;;;;;;;16.53;11.07;;;5.80;99.90;;;;;;5058296;28;20705;-77
2023/03/10 09:18:56;;;;;;;16.93;11.10;;;5.80;99.90;;;;;;5065317;28;20287;-78
2023/03/10 09:21:22;;;;;;;20.10;12.17;;;5.80;99.90;;;;;;5051912;28;20231;-78
2023/03/10 09:23:51;;;;;;;16.67;11.23;;;6.10;99.90;;;;;;5039510;28;20215;-79
2023/03/10 09:26:17;;;;;;;20.87;11.50;;;6.30;99.90;;;;;;5066375;28;20300;-76
2023/03/10 09:28:43;;;;;;;18.50;11.70;;;6.40;99.90;;;;;;5061749;28;20168;-78
2023/03/10 09:31:14;;;;;;;13.20;10.33;;;6.50;99.90;;;;;;5067652;28;20276;-78
2023/03/10 09:33:40;;;;;;;16.40;10.53;;;6.70;99.90;;;;;;5054420;28;20211;-77
2023/03/10 09:36:07;;;;;;;15.87;10.63;;;7.10;99.90;;;;;;5065653;28;20215;-78
2023/03/10 09:38:33;;;;;;;16.40;11.70;;;7.30;99.90;;;;;;5072309;28;20237;-78
2023/03/10 09:41:33;;;;;;;17.17;10.53;;;7.50;99.90;;;;;;5070249;28;20179;-81
2023/03/10 09:44:25;;;;;;;15.83;11.07;;;8.00;99.90;;;;;;5051733;28;20182;-83
2023/03/10 09:47:08;;;;;;;15.77;10.27;;;8.90;99.90;;;;;;5027128;28;20288;-83
2023/03/10 09:49:40;;;;;;;16.50;10.20;;;9.20;99.90;;;;;;5070375;28;20198;-80
2023/03/10 09:52:23;;;;;;;13.43;10.13;;;9.30;99.90;;;;;;5055682;28;20260;-82
2023/03/10 09:55:05;;;;;;;14.33;10.60;;;9.10;99.90;;;;;;5070678;28;20203;-80
2023/03/10 09:57:32;;;;;;;15.00;10.97;;;8.90;99.90;;;;;;5048044;28;20214;-79
2023/03/10 10:00:01;;;;;;;16.77;11.53;;;8.50;99.90;;;;;;5064912;28;20207;-78
2023/03/10 10:02:33;;;;;;;15.43;11.60;;;8.10;99.90;;;;;;5042983;28;20219;-79
2023/03/10 10:05:05;;;;;;;20.03;11.93;;;7.90;99.90;;;;;;5064786;28;20171;-79
2023/03/10 10:07:44;;;;;;;20.73;13.43;;;7.80;99.90;;;;;;5052508;28;20232;-79
2023/03/10 10:10:35;;;;;;;18.30;11.90;;;7.90;99.90;;;;;;5064840;28;20226;-78
2023/03/10 10:13:12;;;;;;;22.17;12.03;;;8.00;99.90;;;;;;5053454;28;20745;-78
2023/03/10 10:15:43;;;;;;;21.43;12.70;;;8.10;99.90;;;;;;5050141;28;20203;-78
2023/03/10 10:18:22;;;;;;;17.77;12.27;;;8.20;99.90;;;;;;5062430;28;21145;-76
2023/03/10 10:20:50;;;;;;;15.97;12.03;;;8.20;99.90;;;;;;5064728;28;20195;-78
2023/03/10 10:23:27;;;;;;;16.03;12.23;;;8.30;99.90;;;;;;5053040;28;20723;-78
2023/03/10 10:25:53;;;;;;;18.30;11.07;;;8.40;99.90;;;;;;5069105;28;20217;-79
2023/03/10 10:28:51;;;;;;;17.10;11.03;;;8.50;99.90;;;;;;5049239;28;20258;-78
2023/03/10 10:31:24;;;;;;;13.90;10.50;;;8.60;99.90;;;;;;5067854;28;20219;-79
2023/03/10 10:33:53;;;;;;;15.57;10.60;;;8.60;99.90;;;;;;5067690;28;20207;-79
2023/03/10 10:36:19;;;;;;;19.60;11.20;;;8.60;99.90;;;;;;5069522;28;20203;-79
2023/03/10 10:38:50;;;;;;;18.00;11.73;;;8.70;99.90;;;;;;5046055;28;20204;-79
2023/03/10 10:41:20;;;;;;;17.10;11.80;;;8.70;99.90;;;;;;5065898;28;20210;-77
2023/03/10 10:43:47;;;;;;;17.27;12.40;;;8.80;99.90;;;;;;5065784;28;20175;-80
2023/03/10 10:46:15;;;;;;;14.40;10.57;;;8.90;99.90;;;;;;5051207;28;20210;-80
2023/03/10 10:48:44;;;;;;;16.90;11.37;;;8.90;99.90;;;;;;5066420;28;20211;-81
2023/03/10 10:51:37;;;;;;;15.57;10.47;;;9.00;99.90;;;;;;5067960;28;20199;-80
2023/03/10 10:54:19;;;;;;;15.07;11.27;;;8.90;99.90;;;;;;5050326;28;20252;-80
2023/03/10 10:57:00;;;;;;;18.80;12.43;;;8.80;99.90;;;;;;5049689;28;20303;-78
2023/03/10 10:59:34;;;;;;;16.07;11.13;;;8.70;99.90;;;;;;5066367;28;20206;-76
2023/03/10 11:02:01;;;;;;;17.80;11.90;;;8.50;99.90;;;;;;5053303;28;20676;-80
2023/03/10 11:04:39;;;;;;;15.77;11.03;;;8.50;99.90;;;;;;5053429;28;20186;-80
2023/03/10 11:07:16;;;;;;;15.73;11.93;;;8.40;99.90;;;;;;5071185;28;20646;-81
2023/03/10 11:09:42;;;;;;;12.30;10.33;;;8.40;99.90;;;;;;5052574;28;20206;-79
2023/03/10 11:12:23;;;;;;;16.17;10.53;;;8.30;99.90;;;;;;5065895;28;20199;-78
2023/03/10 11:15:20;;;;;;;16.47;10.87;;;8.20;99.90;;;;;;5050602;28;20305;-77
2023/03/10 11:17:58;;;;;;;16.33;11.63;;;8.00;99.90;;;;;;5068652;28;20214;-79
2023/03/10 11:20:29;;;;;;;17.00;11.83;;;8.10;99.90;;;;;;5050099;28;20213;-79
2023/03/10 11:23:10;;;;;;;16.57;11.60;;;8.20;99.90;;;;;;5042192;28;20183;-76
2023/03/10 11:26:01;;;;;;;15.60;10.70;;;8.40;99.90;;;;;;5062054;28;20194;-78
2023/03/10 11:28:35;;;;;;;16.67;11.27;;;8.50;99.90;;;;;;5068211;28;20211;-79
2023/03/10 11:31:04;;;;;;;16.07;10.33;;;8.70;99.90;;;;;;5067893;28;20577;-79
2023/03/10 11:33:49;;;;;;;14.50;9.50;;;8.70;99.90;;;;;;5071349;28;20207;-80
2023/03/10 11:36:20;;;;;;;14.10;10.00;;;8.60;99.90;;;;;;5068477;28;20692;-79
2023/03/10 11:38:49;;;;;;;14.87;8.87;;;8.60;99.90;;;;;;5054875;28;20203;-78
2023/03/10 11:41:25;;;;;;;14.10;8.53;;;8.60;99.90;;;;;;5071396;28;20291;-77
2023/03/10 11:43:51;;;;;;;13.53;10.17;;;8.40;99.90;;;;;;5076158;28;20223;-79
2023/03/10 11:46:16;;;;;;;14.43;9.10;;;8.40;99.90;;;;;;5073817;28;20234;-79
2023/03/10 11:49:09;;;;;;;12.00;8.47;;;8.40;99.90;;;;;;5057360;28;20709;-80
2023/03/10 11:51:57;;;;;;;10.57;8.50;;;8.40;99.90;;;;;;5076502;28;20207;-83
2023/03/10 11:54:59;;;;;;;12.07;8.13;;;8.40;99.90;;;;;;5073110;28;20207;-82
2023/03/10 11:57:32;;;;;;;9.27;7.00;;;8.50;99.90;;;;;;5028629;28;20696;-80
2023/03/10 12:00:06;;;;;;;10.03;7.63;;;8.60;99.90;;;;;;5080371;28;20211;-82
2023/03/10 12:02:57;;;;;;;8.40;6.90;;;8.70;99.90;;;;;;5061898;28;20215;-83
2023/03/10 12:05:24;;;;;;;8.73;6.83;;;8.70;99.90;;;;;;5060794;28;20211;-82
2023/03/10 12:07:57;;;;;;;8.33;6.73;;;8.80;99.90;;;;;;5061832;28;20685;-80
2023/03/10 12:10:24;;;;;;;8.60;6.40;;;8.80;99.90;;;;;;5050309;28;20186;-79
2023/03/10 12:12:55;;;;;;;8.00;6.33;;;8.60;99.90;;;;;;5059806;28;20203;-80
2023/03/10 12:15:34;;;;;;;8.00;6.13;;;8.50;99.90;;;;;;5051674;28;20290;-81
2023/03/10 12:18:03;;;;;;;8.30;5.90;;;8.40;99.90;;;;;;5047751;28;20568;-78
2023/03/10 12:20:31;;;;;;;9.93;6.47;;;8.50;99.90;;;;;;5068639;28;20211;-79
2023/03/10 12:23:17;;;;;;;7.50;6.07;;;8.50;99.90;;;;;;5072272;28;20542;-78
2023/03/10 12:25:44;;;;;;;9.90;6.20;;;8.60;99.90;;;;;;5061798;28;20211;-78
2023/03/10 12:28:16;;;;;;;8.53;6.70;;;8.50;99.90;;;;;;5064404;28;20252;-79
2023/03/10 12:31:01;;;;;;;9.60;6.63;;;8.50;99.90;;;;;;5053453;28;20211;-80
2023/03/10 12:33:30;;;;;;;9.50;7.40;;;8.30;99.90;;;;;;5067692;28;20265;-79
2023/03/10 12:36:11;;;;;;;11.77;8.13;;;8.20;99.90;;;;;;5069670;28;20207;-76
2023/03/10 12:38:50;;;;;;;17.37;9.07;;;8.20;99.90;;;;;;5068476;28;20207;-78
2023/03/10 12:41:24;;;;;;;11.53;8.17;;;8.10;99.90;;;;;;5066593;28;20604;-78
2023/03/10 12:44:06;;;;;;;11.40;8.17;;;8.10;99.90;;;;;;5072577;28;20186;-78
2023/03/10 12:46:48;;;;;;;11.07;7.90;;;8.10;99.90;;;;;;5067931;28;20219;-78
2023/03/10 12:49:32;;;;;;;10.87;7.33;;;8.20;99.90;;;;;;5065669;28;20212;-78
2023/03/10 12:52:26;;;;;;;11.63;7.27;;;8.30;99.90;;;;;;5060258;28;20210;-78